Shipu, China
Current Conditions -  °F | °C
As of 3:00 AM on Friday 24 Oct 2014 (Local Time) from ZSNB Reporting Station
Haze Haze  
Wind Chill: 13°   Ceiling: Unl
Heat Index: 13°   Visibility: 2.5mi
Dew Point: 12°   Wind: 2mph
Humidity: 94%   Direction: 150°SSE
Pressure: 30.09"   Gusts: NA
Location:  29.2°N, 121.95°E
Report Text: ZSNB 231900Z 15001MPS 4000 BR NSC 13/12 Q1019 NOSIG
Loading
Personal Weather Stations






























Interactive Weather Map
Tropical Storm Tracking
New forecast layout! Learn more

10-Day Weather Forecast

Advertisements
Track Severe Weather on mobile